createdAt,value
2022-12-04T00:01:12.590Z,19.73
2022-12-04T00:07:43.758Z,19.94
2022-12-04T00:14:07.352Z,19.64
2022-12-04T00:20:29.790Z,19.53
2022-12-04T00:27:01.960Z,19.62
2022-12-04T00:33:31.674Z,19.48
2022-12-04T00:40:05.707Z,19.53
2022-12-04T00:46:37.842Z,19.47
2022-12-04T00:53:04.676Z,19.46
2022-12-04T00:59:32.548Z,19.47
2022-12-04T01:06:10.959Z,19.46
2022-12-04T01:12:45.118Z,19.52
2022-12-04T01:19:13.604Z,19.54
2022-12-04T01:25:43.569Z,19.54
2022-12-04T01:32:21.793Z,19.57
2022-12-04T01:39:02.964Z,19.71
2022-12-04T01:45:34.167Z,19.5
2022-12-04T01:52:17.619Z,19.5
2022-12-04T01:59:07.896Z,19.57
2022-12-04T02:05:58.990Z,19.55
2022-12-04T02:12:40.688Z,19.58
2022-12-04T02:19:43.152Z,19.7
2022-12-04T02:26:50.921Z,19.68
2022-12-04T02:34:01.640Z,19.69
2022-12-04T02:41:07.634Z,19.67
2022-12-04T02:48:11.190Z,19.65
2022-12-04T02:55:08.521Z,19.65
2022-12-04T03:02:12.029Z,19.59
2022-12-04T03:09:17.217Z,19.7
2022-12-04T03:16:29.748Z,19.47
2022-12-04T03:23:31.778Z,19.36
2022-12-04T03:30:48.232Z,19.37
2022-12-04T03:37:51.715Z,19.38
2022-12-04T03:44:43.986Z,19.31
2022-12-04T03:52:07.080Z,19.33
2022-12-04T03:59:08.889Z,19.27
2022-12-04T04:05:55.860Z,19.32
2022-12-04T04:12:49.321Z,19.31
2022-12-04T04:19:52.958Z,19.32
2022-12-04T04:26:50.087Z,19.26
2022-12-04T04:33:34.644Z,19.22
2022-12-04T04:40:57.686Z,19.26
2022-12-04T04:48:01.685Z,19.24
2022-12-04T04:54:48.675Z,19.21
2022-12-04T05:01:26.629Z,19.14
2022-12-04T05:07:59.808Z,19.02
2022-12-04T05:14:28.200Z,19.55
2022-12-04T05:20:58.559Z,20.29
2022-12-04T05:27:28.343Z,20.83
2022-12-04T05:34:02.833Z,21.08
2022-12-04T05:40:43.764Z,21.59
2022-12-04T05:47:15.876Z,21.68
2022-12-04T05:53:47.207Z,21.97
2022-12-04T06:00:20.768Z,22.07
2022-12-04T06:06:59.802Z,22.01
2022-12-04T06:13:36.702Z,22.18
2022-12-04T06:20:25.253Z,22.06
2022-12-04T06:27:26.569Z,21.93
2022-12-04T06:33:48.225Z,21.91
2022-12-04T06:40:24.211Z,21.96
2022-12-04T06:46:54.890Z,21.59
2022-12-04T06:53:25.901Z,21.68
2022-12-04T07:00:00.790Z,21.39
2022-12-04T07:06:31.737Z,21.42
2022-12-04T07:13:03.901Z,21.16
2022-12-04T07:19:28.873Z,21.09
2022-12-04T07:26:00.982Z,21.04
2022-12-04T07:32:34.884Z,20.86
2022-12-04T07:39:08.007Z,20.81
2022-12-04T07:45:37.476Z,20.87
2022-12-04T07:52:17.005Z,21.29
2022-12-04T07:58:49.894Z,21.48
2022-12-04T08:05:25.409Z,21.23
2022-12-04T08:11:49.810Z,20.99
2022-12-04T08:18:24.923Z,20.78
2022-12-04T08:24:55.738Z,20.73
2022-12-04T08:31:27.226Z,20.9
2022-12-04T08:37:58.748Z,20.92
2022-12-04T08:44:24.781Z,21.24
2022-12-04T08:50:54.858Z,20.69
2022-12-04T08:57:27.715Z,20.71
2022-12-04T09:04:05.946Z,20.56
2022-12-04T09:10:41.956Z,20.97
2022-12-04T09:17:14.863Z,21.14
2022-12-04T09:23:43.838Z,21.36
2022-12-04T09:30:20.809Z,21.37
2022-12-04T09:36:51.025Z,21.34
2022-12-04T09:43:34.921Z,21.71
2022-12-04T09:50:44.863Z,21.46
2022-12-04T09:57:36.865Z,21.32
2022-12-04T10:04:30.057Z,20.54
2022-12-04T10:11:41.039Z,20.76
2022-12-04T10:18:44.832Z,21.1
2022-12-04T10:25:52.290Z,21.1
2022-12-04T10:32:53.882Z,21.66
2022-12-04T10:40:00.837Z,21.58
2022-12-04T10:47:02.131Z,21.34
2022-12-04T10:53:48.933Z,21.45
2022-12-04T11:00:28.809Z,21.33
2022-12-04T11:07:37.561Z,21.53
2022-12-04T11:14:47.089Z,20.91
2022-12-04T11:21:41.113Z,21.77
2022-12-04T11:28:42.015Z,21.48
2022-12-04T11:35:37.544Z,21.67
2022-12-04T11:42:12.954Z,21.47
2022-12-04T11:49:18.794Z,21.21
2022-12-04T11:56:21.513Z,21.04
2022-12-04T12:03:30.397Z,21.19
2022-12-04T12:10:44.913Z,21.01
2022-12-04T12:17:39.055Z,21
2022-12-04T12:24:35.108Z,20.94
2022-12-04T12:31:27.456Z,21.53
2022-12-04T12:38:25.898Z,21.84
2022-12-04T12:45:47.425Z,21.58
2022-12-04T12:53:12.907Z,21.44
2022-12-04T13:00:16.991Z,21.35
2022-12-04T13:07:20.068Z,21.2
2022-12-04T13:14:27.856Z,21.19
2022-12-04T13:21:26.392Z,21.04
2022-12-04T13:28:39.142Z,20.92
2022-12-04T13:35:54.112Z,21
2022-12-04T13:42:55.890Z,21.1
2022-12-04T13:50:06.999Z,21.13
2022-12-04T13:57:18.794Z,21.09
2022-12-04T14:04:26.431Z,21.08
2022-12-04T14:11:42.053Z,21.37
2022-12-04T14:18:47.056Z,21.23
2022-12-04T14:25:53.964Z,21.14
2022-12-04T14:32:52.582Z,21.04
2022-12-04T14:39:51.204Z,21.07
2022-12-04T14:46:50.144Z,20.83
2022-12-04T14:54:02.780Z,20.76
2022-12-04T15:01:05.048Z,20.72
2022-12-04T15:07:55.069Z,20.6
2022-12-04T15:14:49.341Z,20.61
2022-12-04T15:21:34.069Z,20.74
2022-12-04T15:28:15.089Z,20.57
2022-12-04T15:35:17.019Z,20.56
2022-12-04T15:42:18.034Z,20.51
2022-12-04T15:49:04.047Z,20.52
2022-12-04T15:55:54.383Z,20.52
2022-12-04T16:02:59.597Z,20.46
2022-12-04T16:09:51.249Z,20.47
2022-12-04T16:16:47.040Z,20.41
2022-12-04T16:23:36.595Z,20.33
2022-12-04T16:30:10.104Z,20.28
2022-12-04T16:36:50.028Z,20.3
2022-12-04T16:43:24.985Z,20.29
2022-12-04T16:50:04.532Z,20.24
2022-12-04T16:56:40.376Z,20.17
2022-12-04T17:03:12.037Z,20.21
2022-12-04T17:09:48.537Z,20.14
2022-12-04T17:16:19.695Z,20.11
2022-12-04T17:22:47.259Z,20.13
2022-12-04T17:29:16.418Z,20.08
2022-12-04T17:35:53.619Z,20.07
2022-12-04T17:42:17.039Z,20.02
2022-12-04T17:48:52.467Z,20.03
2022-12-04T17:55:23.406Z,19.99
2022-12-04T18:01:58.936Z,20.06
2022-12-04T18:08:23.234Z,20.11
2022-12-04T18:15:00.046Z,20.19
2022-12-04T18:21:32.180Z,20.11
2022-12-04T18:27:57.163Z,20.2
2022-12-04T18:34:42.116Z,20.26
2022-12-04T18:41:16.194Z,20.22
2022-12-04T18:47:46.296Z,20.13
2022-12-04T18:54:20.162Z,20.16
2022-12-04T19:00:49.709Z,20.11
2022-12-04T19:07:18.376Z,20.06
2022-12-04T19:13:46.328Z,20.09
2022-12-04T19:20:11.314Z,19.99
2022-12-04T19:26:35.139Z,20.04
2022-12-04T19:33:10.146Z,20
2022-12-04T19:39:48.200Z,20.07
2022-12-04T19:46:26.970Z,20.19
2022-12-04T19:53:00.181Z,20.07
2022-12-04T19:59:36.093Z,20.13
2022-12-04T20:06:15.571Z,20.07
2022-12-04T20:12:52.193Z,20.06
2022-12-04T20:19:31.506Z,20.08
2022-12-04T20:26:10.212Z,20.11
2022-12-04T20:32:49.343Z,20.08
2022-12-04T20:39:19.172Z,20.02
2022-12-04T20:45:51.521Z,20.03
2022-12-04T20:52:38.049Z,20.01
2022-12-04T20:59:04.131Z,19.95
2022-12-04T21:05:40.224Z,19.94
2022-12-04T21:12:22.143Z,19.92
2022-12-04T21:18:59.203Z,19.85
2022-12-04T21:25:36.228Z,19.89
2022-12-04T21:32:05.554Z,19.83
2022-12-04T21:38:36.540Z,19.85
2022-12-04T21:45:05.232Z,19.81
2022-12-04T21:52:00.526Z,19.78
2022-12-04T21:58:31.592Z,19.84
2022-12-04T22:05:00.139Z,19.78
2022-12-04T22:11:30.083Z,19.79
2022-12-04T22:18:10.189Z,19.79
2022-12-04T22:24:41.617Z,19.74
2022-12-04T22:31:10.713Z,19.72
2022-12-04T22:37:39.734Z,19.86
2022-12-04T22:44:18.183Z,19.77
2022-12-04T22:50:51.759Z,19.88
2022-12-04T22:57:27.745Z,19.81
2022-12-04T23:03:52.741Z,19.86
2022-12-04T23:10:22.191Z,19.77
2022-12-04T23:16:55.325Z,19.68
2022-12-04T23:23:21.224Z,19.67
2022-12-04T23:29:56.549Z,19.62
2022-12-04T23:36:34.217Z,19.63
2022-12-04T23:43:10.248Z,19.61
2022-12-04T23:49:41.283Z,19.72
2022-12-04T23:56:07.696Z,19.67
